createdAt,value
2022-10-09T00:01:38.062Z,95.40
2022-10-09T00:06:40.846Z,95.35
2022-10-09T00:11:43.580Z,95.67
2022-10-09T00:16:46.400Z,95.85
2022-10-09T00:21:49.205Z,95.86
2022-10-09T00:26:51.942Z,96.19
2022-10-09T00:31:54.708Z,96.41
2022-10-09T00:36:57.545Z,96.44
2022-10-09T00:42:01.039Z,96.84
2022-10-09T00:47:03.881Z,96.92
2022-10-09T00:52:07.617Z,97.11
2022-10-09T00:57:10.576Z,97.00
2022-10-09T01:02:13.447Z,97.19
2022-10-09T01:07:43.003Z,97.54
2022-10-09T01:13:04.803Z,97.53
2022-10-09T01:18:22.769Z,97.86
2022-10-09T01:23:34.815Z,98.36
2022-10-09T01:28:39.128Z,99.05
2022-10-09T01:33:42.006Z,99.16
2022-10-09T01:38:45.770Z,99.32
2022-10-09T01:43:48.548Z,100.00
2022-10-09T01:49:13.745Z,100.00
2022-10-09T01:54:22.693Z,100.00
2022-10-09T01:59:27.110Z,100.00
2022-10-09T02:04:30.984Z,100.00
2022-10-09T02:09:34.890Z,100.00
2022-10-09T02:14:37.852Z,100.00
2022-10-09T02:20:05.136Z,100.00
2022-10-09T02:25:08.233Z,100.00
2022-10-09T02:30:11.402Z,100.00
2022-10-09T02:35:14.307Z,100.00
2022-10-09T02:40:17.067Z,100.00
2022-10-09T02:45:19.883Z,100.00
2022-10-09T02:50:36.975Z,100.00
2022-10-09T02:55:53.411Z,100.00
2022-10-09T03:00:56.224Z,100.00
2022-10-09T03:06:09.362Z,100.00
2022-10-09T03:11:14.182Z,100.00
2022-10-09T03:16:22.398Z,100.00
2022-10-09T03:21:27.075Z,100.00
2022-10-09T03:26:30.426Z,100.00
2022-10-09T03:31:51.226Z,100.00
2022-10-09T03:36:54.876Z,100.00
2022-10-09T03:41:57.962Z,100.00
2022-10-09T03:47:00.840Z,100.00
2022-10-09T03:52:03.625Z,100.00
2022-10-09T03:57:06.433Z,100.00
2022-10-09T04:02:09.330Z,100.00
2022-10-09T04:07:12.220Z,100.00
2022-10-09T04:12:15.255Z,100.00
2022-10-09T04:17:18.339Z,99.89
2022-10-09T04:22:22.190Z,99.46
2022-10-09T04:27:25.287Z,99.22
2022-10-09T04:32:28.252Z,98.59
2022-10-09T04:37:31.384Z,97.37
2022-10-09T04:42:34.391Z,96.82
2022-10-09T04:47:38.100Z,96.22
2022-10-09T04:52:41.057Z,96.59
2022-10-09T04:57:44.629Z,96.23
2022-10-09T05:02:47.982Z,95.52
2022-10-09T05:07:51.492Z,95.55
2022-10-09T05:12:54.351Z,95.20
2022-10-09T05:17:57.119Z,94.98
2022-10-09T05:22:59.892Z,95.01
2022-10-09T05:28:04.849Z,95.08
2022-10-09T05:33:07.644Z,95.09
2022-10-09T05:38:10.462Z,95.15
2022-10-09T05:43:13.175Z,94.87
2022-10-09T05:48:15.874Z,94.97
2022-10-09T05:53:19.682Z,94.71
2022-10-09T05:58:22.504Z,94.58
2022-10-09T06:03:25.477Z,94.68
2022-10-09T06:08:28.651Z,94.70
2022-10-09T06:13:31.393Z,94.84
2022-10-09T06:18:34.310Z,94.58
2022-10-09T06:23:37.024Z,93.63
2022-10-09T06:28:40.515Z,93.01
2022-10-09T06:33:44.919Z,92.49
2022-10-09T06:38:48.329Z,91.64
2022-10-09T06:43:59.346Z,90.23
2022-10-09T06:49:02.927Z,88.99
2022-10-09T06:54:11.664Z,87.86
2022-10-09T06:59:14.433Z,85.95
2022-10-09T07:04:18.324Z,83.68
2022-10-09T07:09:21.184Z,81.19
2022-10-09T07:14:24.069Z,79.16
2022-10-09T07:19:26.913Z,78.39
2022-10-09T07:24:29.749Z,78.17
2022-10-09T07:29:33.201Z,76.29
2022-10-09T07:34:35.935Z,75.00
2022-10-09T07:39:41.641Z,73.01
2022-10-09T07:44:47.639Z,71.39
2022-10-09T07:49:50.414Z,68.51
2022-10-09T07:54:53.021Z,67.81
2022-10-09T07:59:55.767Z,67.17
2022-10-09T08:04:58.497Z,66.99
2022-10-09T08:10:01.358Z,66.20
2022-10-09T08:15:04.525Z,65.56
2022-10-09T08:20:07.867Z,64.62
2022-10-09T08:25:10.593Z,64.30
2022-10-09T08:30:13.400Z,63.34
2022-10-09T08:35:16.268Z,63.41
2022-10-09T08:40:21.586Z,62.39
2022-10-09T08:45:24.664Z,61.97
2022-10-09T08:50:34.441Z,61.15
2022-10-09T08:55:44.019Z,60.72
2022-10-09T09:00:55.158Z,60.29
2022-10-09T09:06:07.010Z,59.67
2022-10-09T09:11:34.559Z,59.06
2022-10-09T09:16:52.104Z,57.95
2022-10-09T09:21:55.026Z,55.45
2022-10-09T09:27:02.713Z,53.07
2022-10-09T09:32:13.564Z,54.04
2022-10-09T09:37:17.155Z,54.67
2022-10-09T09:42:20.887Z,55.38
2022-10-09T09:47:34.242Z,55.79
2022-10-09T09:52:43.172Z,55.93
2022-10-09T09:57:46.216Z,56.06
2022-10-09T10:02:50.145Z,56.51
2022-10-09T10:07:53.743Z,55.63
2022-10-09T10:12:58.745Z,54.41
2022-10-09T10:18:07.667Z,53.82
2022-10-09T10:23:34.892Z,53.21
2022-10-09T10:29:00.459Z,53.11
2022-10-09T10:34:05.539Z,51.32
2022-10-09T10:39:18.357Z,49.67
2022-10-09T10:44:50.373Z,51.24
2022-10-09T10:49:53.358Z,48.94
2022-10-09T10:55:22.247Z,48.58
2022-10-09T11:00:26.486Z,45.92
2022-10-09T11:05:53.797Z,43.64
2022-10-09T11:11:21.342Z,43.76
2022-10-09T11:16:27.364Z,42.41
2022-10-09T11:21:45.140Z,43.65
2022-10-09T11:27:16.303Z,43.65
2022-10-09T11:32:27.114Z,42.22
2022-10-09T11:37:35.187Z,42.27
2022-10-09T11:42:37.931Z,42.31
2022-10-09T11:48:03.932Z,38.33
2022-10-09T11:53:27.825Z,39.63
2022-10-09T11:58:30.640Z,39.18
2022-10-09T12:03:37.967Z,37.22
2022-10-09T12:08:55.161Z,38.81
2022-10-09T12:14:03.455Z,40.25
2022-10-09T12:19:18.415Z,40.87
2022-10-09T12:24:25.622Z,43.05
2022-10-09T12:29:49.614Z,42.62
2022-10-09T12:34:53.142Z,43.62
2022-10-09T12:40:08.983Z,43.07
2022-10-09T12:45:31.047Z,44.90
2022-10-09T12:50:34.835Z,45.91
2022-10-09T12:55:43.384Z,45.75
2022-10-09T13:00:52.315Z,45.62
2022-10-09T13:05:56.957Z,46.14
2022-10-09T13:11:10.713Z,47.10
2022-10-09T13:16:13.380Z,47.58
2022-10-09T13:21:16.243Z,48.81
2022-10-09T13:26:28.140Z,48.65
2022-10-09T13:31:32.807Z,49.39
2022-10-09T13:36:36.197Z,49.75
2022-10-09T13:41:39.124Z,49.87
2022-10-09T13:46:41.732Z,50.57
2022-10-09T13:51:44.511Z,51.00
2022-10-09T13:56:47.289Z,51.72
2022-10-09T14:01:51.089Z,51.88
2022-10-09T14:06:53.973Z,51.55
2022-10-09T14:11:57.009Z,51.91
2022-10-09T14:16:59.877Z,51.88
2022-10-09T14:22:02.583Z,53.55
2022-10-09T14:27:05.575Z,53.93
2022-10-09T14:32:09.041Z,54.21
2022-10-09T14:37:23.894Z,54.26
2022-10-09T14:42:36.288Z,55.37
2022-10-09T14:47:39.096Z,56.35
2022-10-09T14:52:42.307Z,57.15
2022-10-09T14:57:45.075Z,58.19
2022-10-09T15:02:47.904Z,59.06
2022-10-09T15:07:50.934Z,59.79
2022-10-09T15:12:53.839Z,60.18
2022-10-09T15:17:57.053Z,61.10
2022-10-09T15:22:59.868Z,61.25
2022-10-09T15:28:02.671Z,61.11
2022-10-09T15:33:05.468Z,61.55
2022-10-09T15:38:14.123Z,62.00
2022-10-09T15:43:19.246Z,61.59
2022-10-09T15:48:24.801Z,61.37
2022-10-09T15:53:27.637Z,61.04
2022-10-09T15:58:30.516Z,60.90
2022-10-09T16:03:36.495Z,61.92
2022-10-09T16:08:40.633Z,62.55
2022-10-09T16:13:45.978Z,62.99
2022-10-09T16:18:48.805Z,64.38
2022-10-09T16:23:57.409Z,65.00
2022-10-09T16:29:01.510Z,65.35
2022-10-09T16:34:06.719Z,66.41
2022-10-09T16:39:09.525Z,66.89
2022-10-09T16:44:17.056Z,67.84
2022-10-09T16:49:22.872Z,68.55
2022-10-09T16:54:27.849Z,69.50
2022-10-09T16:59:30.810Z,70.28
2022-10-09T17:04:33.654Z,71.23
2022-10-09T17:09:37.523Z,72.05
2022-10-09T17:14:40.832Z,72.38
2022-10-09T17:19:43.980Z,72.76
2022-10-09T17:24:46.943Z,73.24
2022-10-09T17:29:50.282Z,73.61
2022-10-09T17:34:53.112Z,74.21
2022-10-09T17:39:56.420Z,74.72
2022-10-09T17:44:59.334Z,75.46
2022-10-09T17:50:02.720Z,75.57
2022-10-09T17:55:08.330Z,76.11
2022-10-09T18:00:11.895Z,76.48
2022-10-09T18:05:15.192Z,76.30
2022-10-09T18:10:17.925Z,76.28
2022-10-09T18:15:20.757Z,75.81
2022-10-09T18:20:23.489Z,75.75
2022-10-09T18:25:26.077Z,76.05
2022-10-09T18:30:29.440Z,76.38
2022-10-09T18:35:35.375Z,76.51
2022-10-09T18:40:45.234Z,76.38
2022-10-09T18:45:48.533Z,76.05
2022-10-09T18:50:51.369Z,75.76
2022-10-09T18:55:54.270Z,75.85
2022-10-09T19:00:57.108Z,75.96
2022-10-09T19:05:59.988Z,75.97
2022-10-09T19:11:02.814Z,76.12
2022-10-09T19:16:06.253Z,76.26
2022-10-09T19:21:12.934Z,76.51
2022-10-09T19:26:16.557Z,77.02
2022-10-09T19:31:19.840Z,77.14
2022-10-09T19:36:22.665Z,77.34
2022-10-09T19:41:26.023Z,77.55
2022-10-09T19:46:28.752Z,78.15
2022-10-09T19:51:33.550Z,78.85
2022-10-09T19:56:36.937Z,79.04
2022-10-09T20:01:40.450Z,79.39
2022-10-09T20:06:43.731Z,79.61
2022-10-09T20:11:47.408Z,79.48
2022-10-09T20:16:50.298Z,79.33
2022-10-09T20:21:53.133Z,79.21
2022-10-09T20:26:55.935Z,78.78
2022-10-09T20:31:58.747Z,79.15
2022-10-09T20:37:01.353Z,79.30
2022-10-09T20:42:04.298Z,79.34
2022-10-09T20:47:07.633Z,79.73
2022-10-09T20:52:11.868Z,80.02
2022-10-09T20:57:14.731Z,80.04
2022-10-09T21:02:17.536Z,80.28
2022-10-09T21:07:20.331Z,80.56
2022-10-09T21:12:23.130Z,80.92
2022-10-09T21:17:25.839Z,81.10
2022-10-09T21:22:29.052Z,81.06
2022-10-09T21:27:31.880Z,81.46
2022-10-09T21:32:34.740Z,81.54
2022-10-09T21:37:37.818Z,81.38
2022-10-09T21:42:41.020Z,81.62
2022-10-09T21:47:43.759Z,81.52
2022-10-09T21:52:48.442Z,81.70
2022-10-09T21:57:51.904Z,81.84
2022-10-09T22:02:55.172Z,82.06
2022-10-09T22:07:58.033Z,81.89
2022-10-09T22:13:00.901Z,81.87
2022-10-09T22:18:03.615Z,82.07
2022-10-09T22:23:06.417Z,81.60
2022-10-09T22:28:09.228Z,81.02
2022-10-09T22:33:12.035Z,80.91
2022-10-09T22:38:14.808Z,80.62
2022-10-09T22:43:17.573Z,80.14
2022-10-09T22:48:20.350Z,80.25
2022-10-09T22:53:23.070Z,80.19
2022-10-09T22:58:26.303Z,80.14
2022-10-09T23:03:29.173Z,80.27
2022-10-09T23:08:31.950Z,80.49
2022-10-09T23:13:35.340Z,80.73
2022-10-09T23:18:38.909Z,80.34
2022-10-09T23:23:42.880Z,80.22
2022-10-09T23:28:50.744Z,80.24
2022-10-09T23:33:54.862Z,80.18
2022-10-09T23:38:58.826Z,80.08
2022-10-09T23:44:02.372Z,79.63
2022-10-09T23:49:05.202Z,79.73
2022-10-09T23:54:07.986Z,79.60
2022-10-09T23:59:11.315Z,79.48
